sensor_id;sensor_type;location;lat;lon;timestamp;temperature;humidity
15131;DHT22;7666;50.920;4.628;2022-10-16T00:02:38;13.70;99.90
15131;DHT22;7666;50.920;4.628;2022-10-16T00:05:24;13.70;99.90
15131;DHT22;7666;50.920;4.628;2022-10-16T00:08:13;13.80;99.90
15131;DHT22;7666;50.920;4.628;2022-10-16T00:11:20;13.70;99.90
15131;DHT22;7666;50.920;4.628;2022-10-16T00:14:11;13.70;99.90
15131;DHT22;7666;50.920;4.628;2022-10-16T00:16:57;13.70;99.90
15131;DHT22;7666;50.920;4.628;2022-10-16T00:19:43;13.70;99.90
15131;DHT22;7666;50.920;4.628;2022-10-16T00:22:29;13.70;99.90
15131;DHT22;7666;50.920;4.628;2022-10-16T00:25:15;13.70;99.90
15131;DHT22;7666;50.920;4.628;2022-10-16T00:28:01;13.70;99.90
15131;DHT22;7666;50.920;4.628;2022-10-16T00:30:46;13.70;99.90
15131;DHT22;7666;50.920;4.628;2022-10-16T00:33:33;13.70;99.90
15131;DHT22;7666;50.920;4.628;2022-10-16T00:36:21;13.60;99.90
15131;DHT22;7666;50.920;4.628;2022-10-16T00:39:07;13.60;99.90
15131;DHT22;7666;50.920;4.628;2022-10-16T00:41:53;13.70;99.90
15131;DHT22;7666;50.920;4.628;2022-10-16T00:44:54;13.60;99.90
15131;DHT22;7666;50.920;4.628;2022-10-16T00:47:43;13.60;99.90
15131;DHT22;7666;50.920;4.628;2022-10-16T00:50:34;13.60;99.90
15131;DHT22;7666;50.920;4.628;2022-10-16T00:53:21;13.60;99.90
15131;DHT22;7666;50.920;4.628;2022-10-16T00:56:07;13.60;99.90
15131;DHT22;7666;50.920;4.628;2022-10-16T00:58:53;13.60;99.90
15131;DHT22;7666;50.920;4.628;2022-10-16T01:01:39;13.60;99.90
15131;DHT22;7666;50.920;4.628;2022-10-16T01:04:26;13.60;99.90
15131;DHT22;7666;50.920;4.628;2022-10-16T01:13:08;13.60;99.90
15131;DHT22;7666;50.920;4.628;2022-10-16T01:16:07;13.50;99.90
15131;DHT22;7666;50.920;4.628;2022-10-16T01:19:05;13.50;99.90
15131;DHT22;7666;50.920;4.628;2022-10-16T01:21:55;13.50;99.90
15131;DHT22;7666;50.920;4.628;2022-10-16T01:24:48;13.40;99.90
15131;DHT22;7666;50.920;4.628;2022-10-16T01:27:36;13.50;99.90
15131;DHT22;7666;50.920;4.628;2022-10-16T01:30:26;13.40;99.90
15131;DHT22;7666;50.920;4.628;2022-10-16T01:33:15;13.40;99.90
15131;DHT22;7666;50.920;4.628;2022-10-16T01:36:26;13.40;99.90
15131;DHT22;7666;50.920;4.628;2022-10-16T01:39:15;13.40;99.90
15131;DHT22;7666;50.920;4.628;2022-10-16T01:42:20;13.40;99.90
15131;DHT22;7666;50.920;4.628;2022-10-16T01:45:08;13.40;99.90
15131;DHT22;7666;50.920;4.628;2022-10-16T01:47:57;13.40;99.90
15131;DHT22;7666;50.920;4.628;2022-10-16T01:50:48;13.40;99.90
15131;DHT22;7666;50.920;4.628;2022-10-16T01:53:37;13.30;99.90
15131;DHT22;7666;50.920;4.628;2022-10-16T01:56:24;13.30;99.90
15131;DHT22;7666;50.920;4.628;2022-10-16T01:59:13;13.30;99.90
15131;DHT22;7666;50.920;4.628;2022-10-16T02:02:04;13.30;99.90
15131;DHT22;7666;50.920;4.628;2022-10-16T02:05:10;13.30;99.90
15131;DHT22;7666;50.920;4.628;2022-10-16T02:07:58;13.30;99.90
15131;DHT22;7666;50.920;4.628;2022-10-16T02:10:45;13.20;99.90
15131;DHT22;7666;50.920;4.628;2022-10-16T02:13:53;13.30;99.90
15131;DHT22;7666;50.920;4.628;2022-10-16T02:16:43;13.20;99.90
15131;DHT22;7666;50.920;4.628;2022-10-16T02:19:29;13.20;99.90
15131;DHT22;7666;50.920;4.628;2022-10-16T02:22:21;13.20;99.90
15131;DHT22;7666;50.920;4.628;2022-10-16T02:27:57;13.30;99.90
15131;DHT22;7666;50.920;4.628;2022-10-16T02:31:16;13.30;99.90
15131;DHT22;7666;50.920;4.628;2022-10-16T02:34:04;13.30;99.90
15131;DHT22;7666;50.920;4.628;2022-10-16T02:36:52;13.20;99.90
15131;DHT22;7666;50.920;4.628;2022-10-16T02:39:39;13.20;99.90
15131;DHT22;7666;50.920;4.628;2022-10-16T02:42:33;13.20;99.90
15131;DHT22;7666;50.920;4.628;2022-10-16T02:45:20;13.20;99.90
15131;DHT22;7666;50.920;4.628;2022-10-16T02:48:06;13.20;99.90
15131;DHT22;7666;50.920;4.628;2022-10-16T02:50:52;13.20;99.90
15131;DHT22;7666;50.920;4.628;2022-10-16T02:53:38;13.10;99.90
15131;DHT22;7666;50.920;4.628;2022-10-16T02:56:24;13.10;99.90
15131;DHT22;7666;50.920;4.628;2022-10-16T02:59:10;13.20;99.90
15131;DHT22;7666;50.920;4.628;2022-10-16T03:01:56;13.10;99.90
15131;DHT22;7666;50.920;4.628;2022-10-16T03:04:42;13.10;99.90
15131;DHT22;7666;50.920;4.628;2022-10-16T03:07:28;13.20;99.90
15131;DHT22;7666;50.920;4.628;2022-10-16T03:10:14;13.20;99.90
15131;DHT22;7666;50.920;4.628;2022-10-16T03:13:00;13.20;99.90
15131;DHT22;7666;50.920;4.628;2022-10-16T03:15:46;13.20;99.90
15131;DHT22;7666;50.920;4.628;2022-10-16T03:18:32;13.20;99.90
15131;DHT22;7666;50.920;4.628;2022-10-16T03:21:18;13.20;99.90
15131;DHT22;7666;50.920;4.628;2022-10-16T03:24:04;13.20;99.90
15131;DHT22;7666;50.920;4.628;2022-10-16T03:26:50;13.20;99.90
15131;DHT22;7666;50.920;4.628;2022-10-16T03:29:36;13.20;99.90
15131;DHT22;7666;50.920;4.628;2022-10-16T03:32:22;13.20;99.90
15131;DHT22;7666;50.920;4.628;2022-10-16T03:35:10;13.20;99.90
15131;DHT22;7666;50.920;4.628;2022-10-16T03:37:56;13.10;99.90
15131;DHT22;7666;50.920;4.628;2022-10-16T03:40:42;13.20;99.90
15131;DHT22;7666;50.920;4.628;2022-10-16T03:43:28;13.20;99.90
15131;DHT22;7666;50.920;4.628;2022-10-16T03:46:14;13.20;99.90
15131;DHT22;7666;50.920;4.628;2022-10-16T03:49:00;13.20;99.90
15131;DHT22;7666;50.920;4.628;2022-10-16T03:51:46;13.20;99.90
15131;DHT22;7666;50.920;4.628;2022-10-16T03:54:32;13.20;99.90
15131;DHT22;7666;50.920;4.628;2022-10-16T03:57:18;13.20;99.90
15131;DHT22;7666;50.920;4.628;2022-10-16T04:00:04;13.20;99.90
15131;DHT22;7666;50.920;4.628;2022-10-16T04:02:50;13.20;99.90
15131;DHT22;7666;50.920;4.628;2022-10-16T04:05:36;13.20;99.90
15131;DHT22;7666;50.920;4.628;2022-10-16T04:08:22;13.30;99.90
15131;DHT22;7666;50.920;4.628;2022-10-16T04:11:08;13.20;99.90
15131;DHT22;7666;50.920;4.628;2022-10-16T04:13:54;13.20;99.90
15131;DHT22;7666;50.920;4.628;2022-10-16T04:16:40;13.30;99.90
15131;DHT22;7666;50.920;4.628;2022-10-16T04:19:26;13.30;99.90
15131;DHT22;7666;50.920;4.628;2022-10-16T04:22:13;13.30;99.90
15131;DHT22;7666;50.920;4.628;2022-10-16T04:24:59;13.30;99.90
15131;DHT22;7666;50.920;4.628;2022-10-16T04:27:45;13.30;99.90
15131;DHT22;7666;50.920;4.628;2022-10-16T04:30:31;13.30;99.90
15131;DHT22;7666;50.920;4.628;2022-10-16T04:33:17;13.30;99.90
15131;DHT22;7666;50.920;4.628;2022-10-16T04:36:03;13.30;99.90
15131;DHT22;7666;50.920;4.628;2022-10-16T04:38:49;13.30;99.90
15131;DHT22;7666;50.920;4.628;2022-10-16T04:41:35;13.30;99.90
15131;DHT22;7666;50.920;4.628;2022-10-16T04:44:21;13.20;99.90
15131;DHT22;7666;50.920;4.628;2022-10-16T04:47:07;13.20;99.90
15131;DHT22;7666;50.920;4.628;2022-10-16T04:49:53;13.20;99.90
15131;DHT22;7666;50.920;4.628;2022-10-16T04:52:39;13.20;99.90
15131;DHT22;7666;50.920;4.628;2022-10-16T04:55:25;13.20;99.90
15131;DHT22;7666;50.920;4.628;2022-10-16T04:58:11;13.20;99.90
15131;DHT22;7666;50.920;4.628;2022-10-16T05:00:57;13.20;99.90
15131;DHT22;7666;50.920;4.628;2022-10-16T05:03:43;13.10;99.90
15131;DHT22;7666;50.920;4.628;2022-10-16T05:06:29;13.10;99.90
15131;DHT22;7666;50.920;4.628;2022-10-16T05:09:15;13.10;99.90
15131;DHT22;7666;50.920;4.628;2022-10-16T05:12:00;13.10;99.90
15131;DHT22;7666;50.920;4.628;2022-10-16T05:14:46;13.10;99.90
15131;DHT22;7666;50.920;4.628;2022-10-16T05:17:32;13.10;99.90
15131;DHT22;7666;50.920;4.628;2022-10-16T05:20:18;13.10;99.90
15131;DHT22;7666;50.920;4.628;2022-10-16T05:23:04;13.10;99.90
15131;DHT22;7666;50.920;4.628;2022-10-16T05:25:54;13.00;99.90
15131;DHT22;7666;50.920;4.628;2022-10-16T05:28:41;13.00;99.90
15131;DHT22;7666;50.920;4.628;2022-10-16T05:31:27;13.10;99.90
15131;DHT22;7666;50.920;4.628;2022-10-16T05:34:13;13.10;99.90
15131;DHT22;7666;50.920;4.628;2022-10-16T05:36:58;13.00;99.90
15131;DHT22;7666;50.920;4.628;2022-10-16T05:39:44;13.00;99.90
15131;DHT22;7666;50.920;4.628;2022-10-16T05:42:31;13.10;99.90
15131;DHT22;7666;50.920;4.628;2022-10-16T05:45:17;13.10;99.90
15131;DHT22;7666;50.920;4.628;2022-10-16T05:48:03;13.10;99.90
15131;DHT22;7666;50.920;4.628;2022-10-16T05:50:59;13.10;99.90
15131;DHT22;7666;50.920;4.628;2022-10-16T05:53:45;13.00;99.90
15131;DHT22;7666;50.920;4.628;2022-10-16T05:56:31;13.00;99.90
15131;DHT22;7666;50.920;4.628;2022-10-16T05:59:17;13.00;99.90
15131;DHT22;7666;50.920;4.628;2022-10-16T06:02:03;13.00;99.90
15131;DHT22;7666;50.920;4.628;2022-10-16T06:04:51;13.00;99.90
15131;DHT22;7666;50.920;4.628;2022-10-16T06:07:39;13.00;99.90
15131;DHT22;7666;50.920;4.628;2022-10-16T06:10:25;13.00;99.90
15131;DHT22;7666;50.920;4.628;2022-10-16T06:13:12;13.10;99.90
15131;DHT22;7666;50.920;4.628;2022-10-16T06:15:59;13.00;99.90
15131;DHT22;7666;50.920;4.628;2022-10-16T06:18:46;13.00;99.90
15131;DHT22;7666;50.920;4.628;2022-10-16T06:21:32;13.00;99.90
15131;DHT22;7666;50.920;4.628;2022-10-16T06:24:18;13.00;99.90
15131;DHT22;7666;50.920;4.628;2022-10-16T06:27:05;13.00;99.90
15131;DHT22;7666;50.920;4.628;2022-10-16T06:29:51;13.10;99.90
15131;DHT22;7666;50.920;4.628;2022-10-16T06:32:37;13.20;99.90
15131;DHT22;7666;50.920;4.628;2022-10-16T06:35:22;13.20;99.90
15131;DHT22;7666;50.920;4.628;2022-10-16T06:38:09;13.20;99.90
15131;DHT22;7666;50.920;4.628;2022-10-16T06:40:55;13.10;99.90
15131;DHT22;7666;50.920;4.628;2022-10-16T06:43:41;13.10;99.90
15131;DHT22;7666;50.920;4.628;2022-10-16T06:46:27;13.30;99.90
15131;DHT22;7666;50.920;4.628;2022-10-16T06:49:13;13.80;99.90
15131;DHT22;7666;50.920;4.628;2022-10-16T06:52:01;14.60;99.90
15131;DHT22;7666;50.920;4.628;2022-10-16T06:54:47;15.60;99.90
15131;DHT22;7666;50.920;4.628;2022-10-16T06:57:33;16.90;99.90
15131;DHT22;7666;50.920;4.628;2022-10-16T07:00:19;18.10;99.90
15131;DHT22;7666;50.920;4.628;2022-10-16T07:03:05;19.10;99.90
15131;DHT22;7666;50.920;4.628;2022-10-16T07:05:51;20.00;99.90
15131;DHT22;7666;50.920;4.628;2022-10-16T07:08:39;20.90;99.90
15131;DHT22;7666;50.920;4.628;2022-10-16T07:11:26;21.60;99.90
15131;DHT22;7666;50.920;4.628;2022-10-16T07:14:20;22.10;99.90
15131;DHT22;7666;50.920;4.628;2022-10-16T07:17:06;22.70;99.90
15131;DHT22;7666;50.920;4.628;2022-10-16T07:19:52;22.50;99.90
15131;DHT22;7666;50.920;4.628;2022-10-16T07:22:39;21.50;99.90
15131;DHT22;7666;50.920;4.628;2022-10-16T07:25:24;19.90;99.90
15131;DHT22;7666;50.920;4.628;2022-10-16T07:28:10;18.70;99.90
15131;DHT22;7666;50.920;4.628;2022-10-16T07:31:00;18.20;99.90
15131;DHT22;7666;50.920;4.628;2022-10-16T07:33:47;18.30;99.90
15131;DHT22;7666;50.920;4.628;2022-10-16T07:36:33;19.20;99.90
15131;DHT22;7666;50.920;4.628;2022-10-16T07:39:20;20.20;99.90
15131;DHT22;7666;50.920;4.628;2022-10-16T07:42:06;21.00;99.90
15131;DHT22;7666;50.920;4.628;2022-10-16T07:44:53;21.50;99.90
15131;DHT22;7666;50.920;4.628;2022-10-16T07:47:39;21.90;99.90
15131;DHT22;7666;50.920;4.628;2022-10-16T07:50:25;22.00;99.90
15131;DHT22;7666;50.920;4.628;2022-10-16T07:53:11;21.10;99.90
15131;DHT22;7666;50.920;4.628;2022-10-16T07:55:59;20.00;99.90
15131;DHT22;7666;50.920;4.628;2022-10-16T07:58:45;19.00;99.90
15131;DHT22;7666;50.920;4.628;2022-10-16T08:01:31;18.40;99.90
15131;DHT22;7666;50.920;4.628;2022-10-16T08:04:17;18.00;99.90
15131;DHT22;7666;50.920;4.628;2022-10-16T08:07:03;17.80;99.90
15131;DHT22;7666;50.920;4.628;2022-10-16T08:09:50;17.60;99.90
15131;DHT22;7666;50.920;4.628;2022-10-16T08:12:37;17.50;99.90
15131;DHT22;7666;50.920;4.628;2022-10-16T08:15:23;17.50;99.90
15131;DHT22;7666;50.920;4.628;2022-10-16T08:18:09;17.50;99.90
15131;DHT22;7666;50.920;4.628;2022-10-16T08:20:58;17.60;99.90
15131;DHT22;7666;50.920;4.628;2022-10-16T08:23:44;17.50;99.90
15131;DHT22;7666;50.920;4.628;2022-10-16T08:26:30;17.50;99.90
15131;DHT22;7666;50.920;4.628;2022-10-16T08:29:16;17.50;99.90
15131;DHT22;7666;50.920;4.628;2022-10-16T08:32:03;17.60;99.90
15131;DHT22;7666;50.920;4.628;2022-10-16T08:34:49;17.50;99.90
15131;DHT22;7666;50.920;4.628;2022-10-16T08:37:35;17.60;99.90
15131;DHT22;7666;50.920;4.628;2022-10-16T08:40:28;17.70;99.90
15131;DHT22;7666;50.920;4.628;2022-10-16T08:48:59;17.70;99.90
15131;DHT22;7666;50.920;4.628;2022-10-16T08:51:46;17.80;99.90
15131;DHT22;7666;50.920;4.628;2022-10-16T08:54:42;17.80;99.90
15131;DHT22;7666;50.920;4.628;2022-10-16T08:57:29;17.90;99.90
15131;DHT22;7666;50.920;4.628;2022-10-16T09:00:17;17.90;99.90
15131;DHT22;7666;50.920;4.628;2022-10-16T09:09:14;18.20;99.90
15131;DHT22;7666;50.920;4.628;2022-10-16T09:18:32;18.50;99.90
15131;DHT22;7666;50.920;4.628;2022-10-16T09:21:28;18.60;99.90
15131;DHT22;7666;50.920;4.628;2022-10-16T09:24:17;18.60;99.90
15131;DHT22;7666;50.920;4.628;2022-10-16T09:27:04;18.70;99.90
15131;DHT22;7666;50.920;4.628;2022-10-16T09:29:50;18.80;99.90
15131;DHT22;7666;50.920;4.628;2022-10-16T09:32:38;18.90;99.90
15131;DHT22;7666;50.920;4.628;2022-10-16T09:38:36;18.80;99.90
15131;DHT22;7666;50.920;4.628;2022-10-16T09:41:22;18.90;99.90
15131;DHT22;7666;50.920;4.628;2022-10-16T09:47:15;19.10;99.90
15131;DHT22;7666;50.920;4.628;2022-10-16T09:50:20;19.20;99.90
15131;DHT22;7666;50.920;4.628;2022-10-16T09:53:14;19.40;99.90
15131;DHT22;7666;50.920;4.628;2022-10-16T09:56:01;19.40;99.90
15131;DHT22;7666;50.920;4.628;2022-10-16T09:58:51;19.50;99.90
15131;DHT22;7666;50.920;4.628;2022-10-16T10:01:49;19.60;99.90
15131;DHT22;7666;50.920;4.628;2022-10-16T10:04:50;19.50;99.90
15131;DHT22;7666;50.920;4.628;2022-10-16T10:07:42;19.40;99.90
15131;DHT22;7666;50.920;4.628;2022-10-16T10:10:30;19.30;99.90
15131;DHT22;7666;50.920;4.628;2022-10-16T10:13:22;19.50;99.90
15131;DHT22;7666;50.920;4.628;2022-10-16T10:16:09;19.60;99.90
15131;DHT22;7666;50.920;4.628;2022-10-16T10:18:59;19.80;99.90
15131;DHT22;7666;50.920;4.628;2022-10-16T10:21:46;20.00;99.90
15131;DHT22;7666;50.920;4.628;2022-10-16T10:24:32;20.00;99.90
15131;DHT22;7666;50.920;4.628;2022-10-16T10:27:18;20.10;99.90
15131;DHT22;7666;50.920;4.628;2022-10-16T10:33:24;20.20;99.90
15131;DHT22;7666;50.920;4.628;2022-10-16T10:39:13;20.30;99.90
15131;DHT22;7666;50.920;4.628;2022-10-16T10:45:16;20.20;99.90
15131;DHT22;7666;50.920;4.628;2022-10-16T10:48:12;20.00;99.90
15131;DHT22;7666;50.920;4.628;2022-10-16T10:51:08;20.10;99.90
15131;DHT22;7666;50.920;4.628;2022-10-16T10:54:22;20.40;99.90
15131;DHT22;7666;50.920;4.628;2022-10-16T10:57:10;20.50;99.90
15131;DHT22;7666;50.920;4.628;2022-10-16T11:06:15;21.10;99.90
15131;DHT22;7666;50.920;4.628;2022-10-16T11:09:16;21.10;99.90
15131;DHT22;7666;50.920;4.628;2022-10-16T11:12:14;21.20;99.90
15131;DHT22;7666;50.920;4.628;2022-10-16T11:15:35;21.40;99.90
15131;DHT22;7666;50.920;4.628;2022-10-16T11:24:51;21.50;99.90
15131;DHT22;7666;50.920;4.628;2022-10-16T11:27:49;21.50;99.90
15131;DHT22;7666;50.920;4.628;2022-10-16T11:31:16;21.30;99.90
15131;DHT22;7666;50.920;4.628;2022-10-16T11:36:49;21.10;99.90
15131;DHT22;7666;50.920;4.628;2022-10-16T11:39:38;21.20;99.90
15131;DHT22;7666;50.920;4.628;2022-10-16T11:42:34;21.00;99.90
15131;DHT22;7666;50.920;4.628;2022-10-16T11:45:44;21.00;99.90
15131;DHT22;7666;50.920;4.628;2022-10-16T11:48:55;21.00;99.90
15131;DHT22;7666;50.920;4.628;2022-10-16T11:52:00;21.30;99.90
15131;DHT22;7666;50.920;4.628;2022-10-16T12:07:13;20.80;99.90
15131;DHT22;7666;50.920;4.628;2022-10-16T12:10:11;20.50;99.90
15131;DHT22;7666;50.920;4.628;2022-10-16T12:13:04;20.30;99.90
15131;DHT22;7666;50.920;4.628;2022-10-16T12:15:50;20.20;99.90
15131;DHT22;7666;50.920;4.628;2022-10-16T12:18:36;20.20;99.90
15131;DHT22;7666;50.920;4.628;2022-10-16T12:21:30;20.20;99.90
15131;DHT22;7666;50.920;4.628;2022-10-16T12:24:34;20.30;99.90
15131;DHT22;7666;50.920;4.628;2022-10-16T12:27:31;20.20;99.90
15131;DHT22;7666;50.920;4.628;2022-10-16T12:30:25;20.10;99.90
15131;DHT22;7666;50.920;4.628;2022-10-16T12:33:30;20.20;99.90
15131;DHT22;7666;50.920;4.628;2022-10-16T12:36:30;20.10;99.90
15131;DHT22;7666;50.920;4.628;2022-10-16T12:39:24;20.10;99.90
15131;DHT22;7666;50.920;4.628;2022-10-16T12:42:30;20.20;99.90
15131;DHT22;7666;50.920;4.628;2022-10-16T12:45:30;20.10;99.90
15131;DHT22;7666;50.920;4.628;2022-10-16T12:48:21;20.10;99.90
15131;DHT22;7666;50.920;4.628;2022-10-16T12:51:22;20.20;99.90
15131;DHT22;7666;50.920;4.628;2022-10-16T12:54:20;20.20;99.90
15131;DHT22;7666;50.920;4.628;2022-10-16T12:57:49;20.10;99.90
15131;DHT22;7666;50.920;4.628;2022-10-16T13:04:00;20.00;99.90
15131;DHT22;7666;50.920;4.628;2022-10-16T13:07:15;20.00;99.90
15131;DHT22;7666;50.920;4.628;2022-10-16T13:21:49;19.90;99.90
15131;DHT22;7666;50.920;4.628;2022-10-16T13:27:54;20.00;99.90
15131;DHT22;7666;50.920;4.628;2022-10-16T13:30:43;20.00;99.90
15131;DHT22;7666;50.920;4.628;2022-10-16T13:36:23;19.90;99.90
15131;DHT22;7666;50.920;4.628;2022-10-16T13:39:15;19.70;99.90
15131;DHT22;7666;50.920;4.628;2022-10-16T13:44:51;19.80;99.90
15131;DHT22;7666;50.920;4.628;2022-10-16T13:47:37;19.90;99.90
15131;DHT22;7666;50.920;4.628;2022-10-16T13:50:23;20.10;99.90
15131;DHT22;7666;50.920;4.628;2022-10-16T13:53:14;20.20;99.90
15131;DHT22;7666;50.920;4.628;2022-10-16T13:56:03;20.30;99.90
15131;DHT22;7666;50.920;4.628;2022-10-16T13:59:06;20.20;99.90
15131;DHT22;7666;50.920;4.628;2022-10-16T14:01:55;20.00;99.90
15131;DHT22;7666;50.920;4.628;2022-10-16T14:04:42;19.70;99.90
15131;DHT22;7666;50.920;4.628;2022-10-16T14:07:34;19.60;99.90
15131;DHT22;7666;50.920;4.628;2022-10-16T14:10:26;19.60;99.90
15131;DHT22;7666;50.920;4.628;2022-10-16T14:13:17;19.70;99.90
15131;DHT22;7666;50.920;4.628;2022-10-16T14:16:09;19.70;99.90
15131;DHT22;7666;50.920;4.628;2022-10-16T14:19:00;19.80;99.90
15131;DHT22;7666;50.920;4.628;2022-10-16T14:21:47;19.80;99.90
15131;DHT22;7666;50.920;4.628;2022-10-16T14:24:34;19.90;99.90
15131;DHT22;7666;50.920;4.628;2022-10-16T14:27:30;19.80;99.90
15131;DHT22;7666;50.920;4.628;2022-10-16T14:30:21;19.70;99.90
15131;DHT22;7666;50.920;4.628;2022-10-16T14:36:16;19.50;99.90
15131;DHT22;7666;50.920;4.628;2022-10-16T14:39:17;19.50;99.90
15131;DHT22;7666;50.920;4.628;2022-10-16T14:42:04;19.40;99.90
15131;DHT22;7666;50.920;4.628;2022-10-16T14:44:52;19.40;99.90
15131;DHT22;7666;50.920;4.628;2022-10-16T14:47:48;19.30;99.90
15131;DHT22;7666;50.920;4.628;2022-10-16T14:50:35;19.30;99.90
15131;DHT22;7666;50.920;4.628;2022-10-16T14:53:21;19.30;99.90
15131;DHT22;7666;50.920;4.628;2022-10-16T14:56:19;19.20;99.90
15131;DHT22;7666;50.920;4.628;2022-10-16T14:59:07;19.20;99.90
15131;DHT22;7666;50.920;4.628;2022-10-16T15:01:56;19.10;99.90
15131;DHT22;7666;50.920;4.628;2022-10-16T15:04:42;19.10;99.90
15131;DHT22;7666;50.920;4.628;2022-10-16T15:07:28;19.10;99.90
15131;DHT22;7666;50.920;4.628;2022-10-16T15:10:14;19.00;99.90
15131;DHT22;7666;50.920;4.628;2022-10-16T15:13:00;19.00;99.90
15131;DHT22;7666;50.920;4.628;2022-10-16T15:15:47;19.00;99.90
15131;DHT22;7666;50.920;4.628;2022-10-16T15:18:34;19.10;99.90
15131;DHT22;7666;50.920;4.628;2022-10-16T15:21:25;19.00;99.90
15131;DHT22;7666;50.920;4.628;2022-10-16T15:24:13;19.00;99.90
15131;DHT22;7666;50.920;4.628;2022-10-16T15:26:59;19.00;99.90
15131;DHT22;7666;50.920;4.628;2022-10-16T15:29:44;19.00;99.90
15131;DHT22;7666;50.920;4.628;2022-10-16T15:32:30;19.00;99.90
15131;DHT22;7666;50.920;4.628;2022-10-16T15:35:17;18.90;99.90
15131;DHT22;7666;50.920;4.628;2022-10-16T15:38:02;18.80;99.90
15131;DHT22;7666;50.920;4.628;2022-10-16T15:40:49;18.70;99.90
15131;DHT22;7666;50.920;4.628;2022-10-16T15:43:35;18.70;99.90
15131;DHT22;7666;50.920;4.628;2022-10-16T15:46:23;18.70;99.90
15131;DHT22;7666;50.920;4.628;2022-10-16T15:49:10;18.60;99.90
15131;DHT22;7666;50.920;4.628;2022-10-16T15:51:56;18.40;99.90
15131;DHT22;7666;50.920;4.628;2022-10-16T15:54:43;18.40;99.90
15131;DHT22;7666;50.920;4.628;2022-10-16T15:57:29;18.30;99.90
15131;DHT22;7666;50.920;4.628;2022-10-16T16:00:17;18.20;99.90
15131;DHT22;7666;50.920;4.628;2022-10-16T16:03:04;18.20;99.90
15131;DHT22;7666;50.920;4.628;2022-10-16T16:05:49;18.20;99.90
15131;DHT22;7666;50.920;4.628;2022-10-16T16:08:36;18.20;99.90
15131;DHT22;7666;50.920;4.628;2022-10-16T16:11:22;18.10;99.90
15131;DHT22;7666;50.920;4.628;2022-10-16T16:14:13;18.00;99.90
15131;DHT22;7666;50.920;4.628;2022-10-16T16:16:59;18.00;99.90
15131;DHT22;7666;50.920;4.628;2022-10-16T16:19:46;17.90;99.90
15131;DHT22;7666;50.920;4.628;2022-10-16T16:22:32;17.80;99.90
15131;DHT22;7666;50.920;4.628;2022-10-16T16:25:18;17.70;99.90
15131;DHT22;7666;50.920;4.628;2022-10-16T16:28:04;17.50;99.90
15131;DHT22;7666;50.920;4.628;2022-10-16T16:30:51;17.30;99.90
15131;DHT22;7666;50.920;4.628;2022-10-16T16:33:37;17.20;99.90
15131;DHT22;7666;50.920;4.628;2022-10-16T16:36:24;17.10;99.90
15131;DHT22;7666;50.920;4.628;2022-10-16T16:39:10;17.20;99.90
15131;DHT22;7666;50.920;4.628;2022-10-16T16:41:57;17.20;99.90
15131;DHT22;7666;50.920;4.628;2022-10-16T16:44:44;17.20;99.90
15131;DHT22;7666;50.920;4.628;2022-10-16T16:47:30;17.20;99.90
15131;DHT22;7666;50.920;4.628;2022-10-16T16:50:16;17.10;99.90
15131;DHT22;7666;50.920;4.628;2022-10-16T16:53:02;17.00;99.90
15131;DHT22;7666;50.920;4.628;2022-10-16T16:55:48;16.90;99.90
15131;DHT22;7666;50.920;4.628;2022-10-16T16:58:34;16.80;99.90
15131;DHT22;7666;50.920;4.628;2022-10-16T17:01:21;16.80;99.90
15131;DHT22;7666;50.920;4.628;2022-10-16T17:04:08;16.90;99.90
15131;DHT22;7666;50.920;4.628;2022-10-16T17:06:54;16.90;99.90
15131;DHT22;7666;50.920;4.628;2022-10-16T17:09:41;17.00;99.90
15131;DHT22;7666;50.920;4.628;2022-10-16T17:12:28;17.00;99.90
15131;DHT22;7666;50.920;4.628;2022-10-16T17:15:14;17.10;99.90
15131;DHT22;7666;50.920;4.628;2022-10-16T17:17:59;17.10;99.90
15131;DHT22;7666;50.920;4.628;2022-10-16T17:20:45;17.00;99.90
15131;DHT22;7666;50.920;4.628;2022-10-16T17:23:32;17.00;99.90
15131;DHT22;7666;50.920;4.628;2022-10-16T17:26:19;16.80;99.90
15131;DHT22;7666;50.920;4.628;2022-10-16T17:29:05;16.60;99.90
15131;DHT22;7666;50.920;4.628;2022-10-16T17:31:51;16.50;99.90
15131;DHT22;7666;50.920;4.628;2022-10-16T17:34:37;16.40;99.90
15131;DHT22;7666;50.920;4.628;2022-10-16T17:37:23;16.40;99.90
15131;DHT22;7666;50.920;4.628;2022-10-16T17:40:10;16.40;99.90
15131;DHT22;7666;50.920;4.628;2022-10-16T17:42:56;16.30;99.90
15131;DHT22;7666;50.920;4.628;2022-10-16T17:45:41;16.30;99.90
15131;DHT22;7666;50.920;4.628;2022-10-16T17:48:27;16.30;99.90
15131;DHT22;7666;50.920;4.628;2022-10-16T17:51:16;16.30;99.90
15131;DHT22;7666;50.920;4.628;2022-10-16T17:54:02;16.10;99.90
15131;DHT22;7666;50.920;4.628;2022-10-16T17:56:48;16.10;99.90
15131;DHT22;7666;50.920;4.628;2022-10-16T17:59:34;16.10;99.90
15131;DHT22;7666;50.920;4.628;2022-10-16T18:02:21;16.00;99.90
15131;DHT22;7666;50.920;4.628;2022-10-16T18:05:10;15.80;99.90
15131;DHT22;7666;50.920;4.628;2022-10-16T18:07:56;15.80;99.90
15131;DHT22;7666;50.920;4.628;2022-10-16T18:10:49;15.70;99.90
15131;DHT22;7666;50.920;4.628;2022-10-16T18:13:35;15.70;99.90
15131;DHT22;7666;50.920;4.628;2022-10-16T18:16:21;15.70;99.90
15131;DHT22;7666;50.920;4.628;2022-10-16T18:19:09;15.70;99.90
15131;DHT22;7666;50.920;4.628;2022-10-16T18:21:55;15.70;99.90
15131;DHT22;7666;50.920;4.628;2022-10-16T18:24:41;15.60;99.90
15131;DHT22;7666;50.920;4.628;2022-10-16T18:27:27;15.70;99.90
15131;DHT22;7666;50.920;4.628;2022-10-16T18:30:13;15.70;99.90
15131;DHT22;7666;50.920;4.628;2022-10-16T18:32:59;15.70;99.90
15131;DHT22;7666;50.920;4.628;2022-10-16T18:35:45;15.80;99.90
15131;DHT22;7666;50.920;4.628;2022-10-16T18:38:31;15.90;99.90
15131;DHT22;7666;50.920;4.628;2022-10-16T18:41:18;15.80;99.90
15131;DHT22;7666;50.920;4.628;2022-10-16T18:44:04;15.70;99.90
15131;DHT22;7666;50.920;4.628;2022-10-16T18:46:50;15.60;99.90
15131;DHT22;7666;50.920;4.628;2022-10-16T18:49:41;15.60;99.90
15131;DHT22;7666;50.920;4.628;2022-10-16T18:52:28;15.60;99.90
15131;DHT22;7666;50.920;4.628;2022-10-16T18:55:14;15.60;99.90
15131;DHT22;7666;50.920;4.628;2022-10-16T18:58:00;15.70;99.90
15131;DHT22;7666;50.920;4.628;2022-10-16T19:00:46;15.70;99.90
15131;DHT22;7666;50.920;4.628;2022-10-16T19:03:32;15.70;99.90
15131;DHT22;7666;50.920;4.628;2022-10-16T19:06:18;15.70;99.90
15131;DHT22;7666;50.920;4.628;2022-10-16T19:09:05;15.70;99.90
15131;DHT22;7666;50.920;4.628;2022-10-16T19:11:51;15.60;99.90
15131;DHT22;7666;50.920;4.628;2022-10-16T19:14:37;15.70;99.90
15131;DHT22;7666;50.920;4.628;2022-10-16T19:17:23;15.70;99.90
15131;DHT22;7666;50.920;4.628;2022-10-16T19:20:09;15.70;99.90
15131;DHT22;7666;50.920;4.628;2022-10-16T19:22:55;15.70;99.90
15131;DHT22;7666;50.920;4.628;2022-10-16T19:25:43;15.60;99.90
15131;DHT22;7666;50.920;4.628;2022-10-16T19:28:29;15.60;99.90
15131;DHT22;7666;50.920;4.628;2022-10-16T19:31:18;15.60;99.90
15131;DHT22;7666;50.920;4.628;2022-10-16T19:34:04;15.60;99.90
15131;DHT22;7666;50.920;4.628;2022-10-16T19:36:52;15.70;99.90
15131;DHT22;7666;50.920;4.628;2022-10-16T19:39:38;15.60;99.90
15131;DHT22;7666;50.920;4.628;2022-10-16T19:42:24;15.60;99.90